Time;durP1;ratioP1;P1;durP2;ratioP2;P2;SDS_P1;SDS_P2;PMS_P1;PMS_P2;Temp;Humidity;BMP_temperature;BMP_pressure;BME280_temperature;BME280_humidity;BME280_pressure;Samples;Min_cycle;Max_cycle;Signal;HPM_P1;HPM_P2
2022/06/02 00:01:45;;;;;;;51.25;18.80;;;20.50;99.90;;;;;;5208649;23;20064;-76
2022/06/02 00:04:29;;;;;;;52.35;18.05;;;20.40;99.90;;;;;;4994241;28;20101;-76
2022/06/02 00:07:09;;;;;;;50.50;17.92;;;20.50;99.90;;;;;;4994175;28;20092;-77
2022/06/02 00:09:46;;;;;;;47.83;18.95;;;20.40;99.90;;;;;;4993938;28;20034;-76
2022/06/02 00:12:25;;;;;;;43.05;18.85;;;20.30;99.90;;;;;;4994331;28;20488;-76
2022/06/02 00:15:20;;;;;;;39.17;19.58;;;20.20;99.90;;;;;;4994315;28;20037;-76
2022/06/02 00:18:07;;;;;;;43.83;20.15;;;20.10;99.90;;;;;;4981971;28;20517;-77
2022/06/02 00:20:36;;;;;;;42.45;19.33;;;20.10;99.90;;;;;;4980821;28;20022;-76
2022/06/02 00:23:26;;;;;;;43.25;20.30;;;20.20;99.90;;;;;;4994205;28;20500;-76
2022/06/02 00:26:03;;;;;;;41.03;18.90;;;20.30;99.90;;;;;;4994575;28;20477;-76
2022/06/02 00:28:47;;;;;;;45.20;17.92;;;20.30;99.90;;;;;;4990176;28;20034;-75
2022/06/02 00:31:31;;;;;;;41.25;17.38;;;20.40;99.90;;;;;;4994001;28;20030;-75
2022/06/02 00:34:14;;;;;;;40.72;17.73;;;20.50;99.90;;;;;;4993898;28;20392;-76
2022/06/02 00:37:21;;;;;;;37.78;19.38;;;20.40;99.90;;;;;;4994020;28;20027;-77
2022/06/02 00:39:48;;;;;;;43.38;18.98;;;20.40;99.90;;;;;;4990081;28;20113;-76
2022/06/02 00:42:26;;;;;;;42.58;19.83;;;20.40;99.90;;;;;;4986800;28;20027;-77
2022/06/02 00:44:54;;;;;;;44.67;18.67;;;20.30;99.90;;;;;;4997268;28;20395;-76
2022/06/02 00:47:49;;;;;;;46.78;19.42;;;20.40;99.90;;;;;;4980972;28;20022;-76
2022/06/02 00:50:23;;;;;;;;;;;20.40;99.90;;;;;;4994697;28;20030;-74
2022/06/02 00:53:36;;;;;;;42.53;18.95;;;20.40;99.90;;;;;;4990705;28;19914;-76
2022/06/02 00:59:38;;;;;;;;;;;20.30;99.90;;;;;;4951802;29;20038;-77
2022/06/02 01:02:04;;;;;;;53.85;22.00;;;20.30;99.90;;;;;;4952028;28;20394;-75
2022/06/02 01:04:29;;;;;;;47.10;21.38;;;20.30;99.90;;;;;;4936302;29;20110;-76
2022/06/02 01:07:10;;;;;;;50.45;22.27;;;20.30;99.90;;;;;;4940244;29;20130;-76
2022/06/02 01:09:58;;;;;;;45.83;21.80;;;20.30;99.90;;;;;;4939071;29;20545;-76
2022/06/02 01:12:59;;;;;;;43.97;21.90;;;20.30;99.90;;;;;;4933284;29;20442;-76
2022/06/02 01:15:59;;;;;;;52.13;24.52;;;20.30;99.90;;;;;;4940382;29;20121;-76
2022/06/02 01:18:34;;;;;;;45.75;25.88;;;20.30;99.90;;;;;;4943516;29;20118;-76
2022/06/02 01:21:03;;;;;;;47.75;24.70;;;20.20;99.90;;;;;;4938741;29;20076;-76
2022/06/02 01:24:02;;;;;;;46.22;22.05;;;20.30;99.90;;;;;;4936196;29;20050;-76
2022/06/02 01:26:53;;;;;;;48.30;21.38;;;20.30;99.90;;;;;;4972521;28;20041;-76
2022/06/02 01:29:45;;;;;;;42.17;20.63;;;20.30;99.90;;;;;;4994862;28;20534;-76
2022/06/02 01:32:17;;;;;;;48.08;22.92;;;20.20;99.90;;;;;;4994278;28;20035;-76
2022/06/02 01:35:19;;;;;;;43.75;22.13;;;20.20;99.90;;;;;;4993972;28;20034;-75
2022/06/02 01:37:54;;;;;;;50.65;23.27;;;20.10;99.90;;;;;;4971981;28;20106;-76
2022/06/02 01:40:19;;;;;;;47.13;23.00;;;20.10;99.90;;;;;;4974313;28;20049;-75
2022/06/02 01:42:56;;;;;;;48.22;22.63;;;20.10;99.90;;;;;;4972696;28;20117;-76
2022/06/02 01:45:25;;;;;;;50.10;24.13;;;20.20;99.90;;;;;;4972593;28;20039;-76
2022/06/02 01:48:18;;;;;;;43.80;23.95;;;20.20;99.90;;;;;;4972861;28;20058;-75
2022/06/02 01:51:00;;;;;;;49.70;29.73;;;20.10;99.90;;;;;;4953393;28;20146;-75
2022/06/02 01:53:48;;;;;;;49.38;23.73;;;20.10;99.90;;;;;;4957618;28;20535;-76
2022/06/02 01:56:44;;;;;;;47.67;24.52;;;20.10;99.90;;;;;;4972854;28;20038;-75
2022/06/02 01:59:40;;;;;;;46.53;22.42;;;20.10;99.90;;;;;;4982101;28;20122;-75
2022/06/02 02:02:05;;;;;;;40.85;21.85;;;20.10;99.90;;;;;;4970416;28;20039;-76
2022/06/02 02:04:56;;;;;;;45.40;22.13;;;20.10;99.90;;;;;;4973565;28;20073;-76
2022/06/02 02:07:31;;;;;;;45.40;21.17;;;20.10;99.90;;;;;;4972001;28;20484;-75
2022/06/02 02:10:08;;;;;;;48.20;22.45;;;20.00;99.90;;;;;;4972282;28;20059;-75
2022/06/02 02:13:04;;;;;;;47.22;20.92;;;20.00;99.90;;;;;;4990827;28;20052;-75
2022/06/02 02:15:53;;;;;;;41.28;19.80;;;20.20;99.90;;;;;;4994164;28;20038;-75
2022/06/02 02:18:57;;;;;;;41.70;21.75;;;20.10;99.90;;;;;;4994777;28;20053;-76
2022/06/02 02:21:44;;;;;;;44.65;18.75;;;20.10;99.90;;;;;;4993428;28;20295;-75
2022/06/02 02:24:34;;;;;;;40.33;19.90;;;20.20;99.90;;;;;;4994833;28;20472;-76
2022/06/02 02:27:05;;;;;;;46.47;19.40;;;20.10;99.90;;;;;;4993579;28;20509;-76
2022/06/02 02:29:53;;;;;;;36.70;19.70;;;20.10;99.90;;;;;;4994008;28;20023;-76
2022/06/02 02:32:45;;;;;;;40.03;19.02;;;20.10;99.90;;;;;;4993257;28;20038;-75
2022/06/02 02:35:27;;;;;;;38.78;19.88;;;20.20;99.90;;;;;;4992286;28;20018;-75
2022/06/02 02:38:10;;;;;;;44.85;19.60;;;20.20;99.90;;;;;;4989144;28;20030;-75
2022/06/02 02:41:02;;;;;;;43.30;18.85;;;20.20;99.90;;;;;;4991489;28;20088;-75
2022/06/02 02:43:44;;;;;;;33.47;19.17;;;20.20;99.90;;;;;;4994151;28;20089;-76
2022/06/02 02:46:13;;;;;;;48.92;21.50;;;20.30;99.90;;;;;;4992284;28;20443;-76
2022/06/02 02:49:19;;;;;;;48.13;19.67;;;20.30;99.90;;;;;;4993125;28;20030;-76
2022/06/02 02:52:31;;;;;;;42.67;19.30;;;20.30;99.90;;;;;;4993112;28;20065;-77
2022/06/02 02:55:03;;;;;;;46.83;19.80;;;20.30;99.90;;;;;;4992557;28;20093;-75
2022/06/02 02:57:47;;;;;;;42.67;19.92;;;20.30;99.90;;;;;;4994751;28;20483;-75
2022/06/02 03:00:33;;;;;;;36.42;17.80;;;20.30;99.90;;;;;;4993282;28;20046;-75
2022/06/02 03:03:18;;;;;;;44.08;18.85;;;20.30;99.90;;;;;;4992965;28;20026;-75
2022/06/02 03:06:10;;;;;;;41.28;19.05;;;20.30;99.90;;;;;;4993054;28;20030;-76
2022/06/02 03:08:57;;;;;;;41.00;19.20;;;20.20;99.90;;;;;;4979514;28;20026;-75
2022/06/02 03:11:47;;;;;;;41.05;19.42;;;20.30;99.90;;;;;;4988476;28;20443;-75
2022/06/02 03:14:18;;;;;;;38.65;18.80;;;20.20;99.90;;;;;;4983649;28;20046;-76
2022/06/02 03:16:51;;;;;;;36.42;19.45;;;20.10;99.90;;;;;;4992298;28;20508;-76
2022/06/02 03:19:23;;;;;;;36.77;18.00;;;20.20;99.90;;;;;;4994903;28;20361;-76
2022/06/02 03:22:05;;;;;;;38.35;17.45;;;20.30;99.90;;;;;;4998253;28;20038;-75
2022/06/02 03:24:50;;;;;;;39.65;17.80;;;20.30;99.90;;;;;;4998386;28;20034;-76
2022/06/02 03:27:47;;;;;;;36.85;16.27;;;20.30;99.90;;;;;;4995366;28;20111;-76
2022/06/02 03:30:18;;;;;;;34.35;17.10;;;20.30;99.90;;;;;;4996301;28;20088;-75
2022/06/02 03:33:23;;;;;;;33.85;16.65;;;20.30;99.90;;;;;;4996840;28;20038;-76
2022/06/02 03:35:59;;;;;;;33.33;16.73;;;20.30;99.90;;;;;;4982360;28;20039;-76
2022/06/02 03:38:46;;;;;;;41.85;17.90;;;20.30;99.90;;;;;;4981750;28;20080;-75
2022/06/02 03:41:15;;;;;;;42.70;19.20;;;20.40;99.90;;;;;;4996628;28;20038;-76
2022/06/02 03:43:59;;;;;;;44.40;19.27;;;20.40;99.90;;;;;;4995884;28;20053;-76
2022/06/02 03:47:02;;;;;;;42.88;20.08;;;20.40;99.90;;;;;;4996209;28;20488;-76
2022/06/02 03:49:48;;;;;;;43.30;17.60;;;20.40;99.90;;;;;;4997569;28;20034;-75
2022/06/02 03:52:31;;;;;;;44.08;19.13;;;20.30;99.90;;;;;;4997722;28;20038;-75
2022/06/02 03:55:08;;;;;;;38.03;17.48;;;20.40;99.90;;;;;;4995744;28;20054;-76
2022/06/02 03:57:34;;;;;;;42.40;18.73;;;20.40;99.90;;;;;;4996253;28;20093;-75
2022/06/02 04:00:17;;;;;;;35.30;18.40;;;20.30;99.90;;;;;;4997095;28;20038;-75
2022/06/02 04:03:00;;;;;;;39.95;19.27;;;20.30;99.90;;;;;;4994861;28;20497;-76
2022/06/02 04:06:01;;;;;;;35.97;18.80;;;20.30;99.90;;;;;;4981224;28;20026;-75
2022/06/02 04:08:57;;;;;;;40.63;18.35;;;20.30;99.90;;;;;;4983735;28;20022;-75
2022/06/02 04:14:51;;;;;;;37.78;17.35;;;20.30;99.90;;;;;;4985119;28;20077;-76
2022/06/02 04:17:35;;;;;;;36.43;17.93;;;20.30;99.90;;;;;;4996270;28;20026;-76
2022/06/02 04:23:27;;;;;;;38.53;18.63;;;20.30;99.90;;;;;;4995053;28;20401;-75
2022/06/02 04:26:15;;;;;;;37.53;18.63;;;20.20;99.90;;;;;;4989426;28;20061;-75
2022/06/02 04:28:40;;;;;;;38.15;18.92;;;20.20;99.90;;;;;;4991924;28;20031;-75
2022/06/02 04:31:32;;;;;;;39.05;19.75;;;20.20;99.90;;;;;;4965597;28;20130;-75
2022/06/02 04:33:58;;;;;;;41.88;18.52;;;20.20;99.90;;;;;;4983710;28;20038;-75
2022/06/02 04:36:47;;;;;;;33.97;18.10;;;20.30;99.90;;;;;;4983746;28;20443;-76
2022/06/02 04:39:30;;;;;;;39.05;18.15;;;20.30;99.90;;;;;;4983458;28;20038;-75
2022/06/02 04:42:08;;;;;;;42.45;19.02;;;20.30;99.90;;;;;;4982321;28;20407;-76
2022/06/02 04:44:53;;;;;;;43.25;17.25;;;20.30;99.90;;;;;;4994421;28;20120;-76
2022/06/02 04:48:13;;;;;;;36.65;17.52;;;20.40;99.90;;;;;;4978781;28;20044;-75
2022/06/02 04:50:51;;;;;;;37.92;18.08;;;20.40;99.90;;;;;;4914512;29;20043;-76
2022/06/02 04:53:46;;;;;;;39.83;18.33;;;20.40;99.90;;;;;;4916302;29;20236;-75
2022/06/02 04:56:26;;;;;;;37.17;17.55;;;20.40;99.90;;;;;;4859225;29;20137;-78
2022/06/02 04:59:26;;;;;;;42.35;19.55;;;20.50;99.90;;;;;;4858524;29;20029;-78
2022/06/02 05:02:33;;;;;;;31.23;16.50;;;20.50;99.90;;;;;;4845610;29;20480;-79
2022/06/02 05:05:06;;;;;;;37.13;17.40;;;20.50;99.90;;;;;;4877358;29;20041;-79
2022/06/02 05:07:37;;;;;;;37.47;16.95;;;20.50;99.90;;;;;;4879381;29;20124;-79
2022/06/02 05:10:03;;;;;;;40.17;17.08;;;20.60;99.90;;;;;;4879841;29;20063;-79
2022/06/02 05:12:31;;;;;;;38.28;16.58;;;20.60;99.90;;;;;;4870637;29;20053;-79
2022/06/02 05:15:23;;;;;;;39.65;16.55;;;20.70;99.90;;;;;;4867802;29;20511;-79
2022/06/02 05:18:18;;;;;;;36.38;16.08;;;20.70;99.90;;;;;;4868087;29;20073;-79
2022/06/02 05:21:06;;;;;;;35.97;17.75;;;20.70;99.90;;;;;;4885873;29;20103;-79
2022/06/02 05:23:56;;;;;;;33.35;16.70;;;20.80;99.90;;;;;;5012045;23;20037;-67
2022/06/02 05:26:31;;;;;;;43.58;17.67;;;20.80;99.90;;;;;;4999272;28;20033;-68
2022/06/02 05:29:08;;;;;;;31.65;16.23;;;20.80;99.90;;;;;;5011242;28;20117;-68
2022/06/02 05:32:06;;;;;;;35.22;16.27;;;20.90;99.90;;;;;;5011880;28;20030;-69
2022/06/02 05:34:44;;;;;;;35.53;16.42;;;21.00;99.90;;;;;;5011827;28;20038;-68
2022/06/02 05:37:46;;;;;;;42.58;16.75;;;21.10;99.90;;;;;;5009136;28;20044;-67
2022/06/02 05:40:50;;;;;;;38.97;16.27;;;21.00;99.90;;;;;;5013417;28;20086;-66
2022/06/02 05:43:35;;;;;;;37.55;17.05;;;21.10;99.90;;;;;;5011173;28;20073;-68
2022/06/02 05:46:19;;;;;;;38.15;16.80;;;21.10;99.90;;;;;;5011273;28;20049;-67
2022/06/02 05:49:01;;;;;;;39.90;16.25;;;21.10;99.90;;;;;;5013780;28;20046;-68
2022/06/02 05:51:45;;;;;;;36.08;16.00;;;21.30;99.90;;;;;;5012202;28;20127;-67
2022/06/02 05:54:30;;;;;;;41.00;16.80;;;21.20;99.90;;;;;;4995581;28;20458;-67
2022/06/02 05:57:26;;;;;;;31.77;15.60;;;21.30;99.90;;;;;;5013618;28;20033;-67
2022/06/02 06:00:05;;;;;;;54.15;17.48;;;21.40;99.90;;;;;;5012700;28;20033;-67
2022/06/02 06:03:01;;;;;;;35.75;16.05;;;21.40;99.90;;;;;;5008307;28;20461;-67
2022/06/02 06:05:41;;;;;;;43.35;17.42;;;21.40;99.90;;;;;;5013476;28;20033;-67
2022/06/02 06:08:31;;;;;;;45.50;18.40;;;21.40;99.90;;;;;;5009980;28;20037;-67
2022/06/02 06:11:12;;;;;;;40.78;18.27;;;21.40;99.90;;;;;;5010418;28;20088;-67
2022/06/02 06:13:41;;;;;;;42.70;17.63;;;21.40;99.90;;;;;;5011855;28;20502;-68
2022/06/02 06:16:31;;;;;;;50.67;18.10;;;21.40;99.90;;;;;;5013334;28;20125;-68
2022/06/02 06:19:15;;;;;;;41.13;20.10;;;21.40;99.90;;;;;;5009515;28;20497;-68
2022/06/02 06:21:56;;;;;;;49.58;18.45;;;21.40;99.90;;;;;;5011037;28;21743;-68
2022/06/02 06:24:42;;;;;;;44.72;18.85;;;21.40;99.90;;;;;;5011199;28;20113;-68
2022/06/02 06:27:28;;;;;;;43.60;19.25;;;21.60;99.90;;;;;;5011609;28;20072;-68
2022/06/02 06:30:18;;;;;;;42.60;17.83;;;21.70;99.90;;;;;;5010625;28;20121;-68
2022/06/02 06:33:16;;;;;;;35.90;17.13;;;21.70;99.90;;;;;;5011473;28;20550;-68
2022/06/02 06:36:01;;;;;;;37.35;16.95;;;21.60;99.90;;;;;;5011859;28;20032;-68
2022/06/02 06:38:56;;;;;;;46.63;19.92;;;21.80;99.90;;;;;;5011341;28;20038;-68
2022/06/02 06:41:56;;;;;;;43.92;19.13;;;21.90;99.90;;;;;;5011211;28;20053;-68
2022/06/02 06:44:39;;;;;;;54.45;20.98;;;22.00;99.90;;;;;;5011585;28;20075;-68
2022/06/02 06:47:19;;;;;;;45.97;19.97;;;22.10;99.90;;;;;;5011086;28;20030;-69
2022/06/02 06:50:23;;;;;;;45.38;20.67;;;22.00;99.90;;;;;;5009796;28;20030;-68
2022/06/02 06:53:17;;;;;;;50.50;20.40;;;22.10;99.90;;;;;;5007050;28;20042;-69
2022/06/02 06:55:59;;;;;;;39.90;20.27;;;22.20;99.90;;;;;;5011240;28;20060;-68
2022/06/02 06:58:28;;;;;;;39.03;21.15;;;22.20;99.90;;;;;;5013706;28;20042;-68
2022/06/02 07:01:39;;;;;;;49.70;20.45;;;22.30;99.90;;;;;;5013189;28;20042;-68
2022/06/02 07:04:26;;;;;;;45.70;20.25;;;22.40;99.90;;;;;;5013346;28;20030;-68
2022/06/02 07:06:58;;;;;;;53.10;22.65;;;22.30;99.90;;;;;;5014609;28;20038;-68
2022/06/02 07:09:51;;;;;;;46.85;21.25;;;22.30;99.90;;;;;;5012985;28;20525;-68
2022/06/02 07:15:20;;;;;;;47.00;22.10;;;22.30;99.90;;;;;;5013825;28;20049;-68
2022/06/02 07:18:13;;;;;;;44.92;21.50;;;22.20;99.90;;;;;;5014317;28;20037;-68
2022/06/02 07:21:01;;;;;;;48.95;20.73;;;22.30;99.90;;;;;;4999759;28;20052;-67
2022/06/02 07:24:04;;;;;;;47.75;21.40;;;22.40;99.90;;;;;;4997648;28;20054;-68
2022/06/02 07:27:02;;;;;;;34.00;14.38;;;22.70;99.90;;;;;;4998583;28;20022;-68
2022/06/02 07:29:40;;;;;;;33.75;14.15;;;22.70;99.90;;;;;;4997581;28;20053;-68
2022/06/02 07:32:33;;;;;;;33.95;14.60;;;22.50;99.90;;;;;;5011365;28;20376;-68
2022/06/02 07:35:04;;;;;;;34.30;15.77;;;22.50;99.90;;;;;;5008517;28;20030;-68
2022/06/02 07:38:01;;;;;;;36.63;15.35;;;22.70;99.90;;;;;;5013664;28;20040;-68
2022/06/02 07:41:04;;;;;;;39.17;16.17;;;22.80;99.90;;;;;;5012306;28;20046;-68
2022/06/02 07:43:40;;;;;;;30.75;15.85;;;22.90;99.90;;;;;;5013230;28;20044;-72
2022/06/02 07:46:06;;;;;;;35.40;15.07;;;23.20;99.90;;;;;;5013618;28;20083;-72
2022/06/02 07:48:34;;;;;;;31.20;15.10;;;23.40;99.90;;;;;;5007436;28;20452;-73
2022/06/02 07:51:06;;;;;;;41.40;16.13;;;23.30;99.90;;;;;;5012632;28;20116;-73
2022/06/02 07:53:58;;;;;;;39.15;14.10;;;23.30;99.90;;;;;;5014448;28;20103;-73
2022/06/02 07:56:50;;;;;;;30.23;16.17;;;23.10;99.90;;;;;;4998576;28;20034;-73
2022/06/02 07:59:28;;;;;;;34.47;13.95;;;23.10;99.90;;;;;;5012142;28;20034;-74
2022/06/02 08:02:15;;;;;;;37.63;16.02;;;23.20;99.90;;;;;;5237963;23;20046;-74
2022/06/02 08:05:03;;;;;;;30.20;14.63;;;23.40;99.90;;;;;;5011163;28;20041;-74
2022/06/02 08:07:54;;;;;;;34.03;14.93;;;23.40;99.90;;;;;;5178347;23;20023;-83
2022/06/02 08:10:56;;;;;;;29.73;15.45;;;23.40;99.90;;;;;;4977964;28;20067;-83
2022/06/02 08:13:35;;;;;;;35.85;14.27;;;23.80;99.90;;;;;;4973766;28;20055;-83
2022/06/02 08:16:10;;;;;;;31.23;13.40;;;23.80;99.90;;;;;;4974545;28;20034;-83
2022/06/02 08:18:50;;;;;;;29.75;13.70;;;24.00;99.90;;;;;;4974353;28;20435;-83
2022/06/02 08:21:29;;;;;;;32.72;14.55;;;24.00;99.90;;;;;;4974418;28;20157;-83
2022/06/02 08:24:33;;;;;;;29.48;15.45;;;23.90;99.90;;;;;;4974969;28;20109;-83
2022/06/02 08:27:17;;;;;;;26.80;13.52;;;24.00;99.90;;;;;;4973664;28;20463;-83
2022/06/02 08:30:04;;;;;;;26.15;13.43;;;24.10;99.90;;;;;;4974487;28;20102;-82
2022/06/02 08:33:06;;;;;;;26.75;13.60;;;24.10;99.90;;;;;;4974436;28;20026;-83
2022/06/02 08:36:08;;;;;;;25.83;13.93;;;24.10;99.90;;;;;;4973755;28;20055;-83
2022/06/02 08:39:15;;;;;;;24.15;12.82;;;24.10;99.90;;;;;;4974251;28;20023;-84
2022/06/02 08:41:52;;;;;;;28.48;12.30;;;24.50;99.90;;;;;;4916383;29;20044;-83
2022/06/02 08:44:24;;;;;;;29.10;14.25;;;24.40;99.90;;;;;;4916289;29;20032;-83
2022/06/02 08:46:49;;;;;;;29.15;12.38;;;24.40;99.90;;;;;;4915797;29;20058;-84
2022/06/02 08:49:39;;;;;;;23.58;12.45;;;24.10;99.90;;;;;;4919338;29;20142;-83
2022/06/02 08:52:26;;;;;;;38.28;12.63;;;24.30;99.90;;;;;;4935403;29;20502;-84
2022/06/02 08:55:16;;;;;;;27.25;11.45;;;24.30;99.90;;;;;;4935059;29;20071;-83
2022/06/02 08:57:44;;;;;;;28.52;10.15;;;24.50;99.90;;;;;;4935215;29;20040;-83
2022/06/02 09:00:33;;;;;;;21.80;8.98;;;24.60;99.90;;;;;;4935018;29;20062;-83
2022/06/02 09:03:28;;;;;;;21.40;8.60;;;24.70;99.90;;;;;;4936578;29;20020;-83
2022/06/02 09:06:08;;;;;;;20.75;9.32;;;24.70;99.90;;;;;;4935150;29;20120;-84
2022/06/02 09:08:45;;;;;;;18.95;8.13;;;24.60;99.60;;;;;;4921397;29;20100;-83
2022/06/02 09:11:22;;;;;;;21.10;9.52;;;24.60;99.90;;;;;;4934334;29;20568;-84
2022/06/02 09:14:15;;;;;;;26.38;9.93;;;24.60;99.90;;;;;;4934299;29;20516;-84
2022/06/02 09:16:56;;;;;;;26.45;10.00;;;24.80;99.90;;;;;;4933134;29;20153;-84
2022/06/02 09:19:58;;;;;;;22.25;9.18;;;24.70;99.70;;;;;;4972448;28;20057;-84
2022/06/02 09:22:33;;;;;;;23.67;9.40;;;24.80;99.10;;;;;;4976581;28;20093;-83
2022/06/02 09:25:07;;;;;;;25.02;10.48;;;25.00;98.20;;;;;;4975506;28;20033;-84
2022/06/02 09:27:33;;;;;;;22.45;9.23;;;25.20;98.30;;;;;;4990313;28;20391;-83
2022/06/02 09:30:03;;;;;;;20.58;9.57;;;25.10;97.30;;;;;;4975352;28;20026;-83
2022/06/02 09:32:46;;;;;;;24.35;10.13;;;24.80;97.50;;;;;;4974962;28;20078;-84
2022/06/02 09:35:25;;;;;;;21.48;8.50;;;24.90;97.40;;;;;;4975291;28;20106;-84
2022/06/02 09:38:19;;;;;;;22.75;9.77;;;25.00;97.70;;;;;;4970419;28;20061;-84
2022/06/02 09:41:10;;;;;;;20.98;8.70;;;25.00;96.80;;;;;;4974432;28;20109;-84
2022/06/02 09:43:50;;;;;;;22.27;8.15;;;25.10;96.80;;;;;;4972448;28;20034;-84
2022/06/02 09:46:19;;;;;;;20.08;8.10;;;25.00;95.90;;;;;;4975360;28;20134;-85
2022/06/02 09:51:44;;;;;;;21.35;7.93;;;25.20;95.60;;;;;;4974337;23;20050;-84
2022/06/02 09:54:12;;;;;;;18.92;8.30;;;25.40;95.40;;;;;;5015079;28;20033;-84
2022/06/02 09:57:01;;;;;;;18.33;7.78;;;25.50;94.50;;;;;;5014304;28;20391;-85
2022/06/02 09:59:38;;;;;;;19.27;7.38;;;25.30;95.10;;;;;;4998943;28;20032;-85
2022/06/02 10:02:36;;;;;;;17.92;8.25;;;25.40;95.00;;;;;;5013213;28;20030;-84
2022/06/02 10:05:40;;;;;;;17.33;7.60;;;25.30;94.80;;;;;;4987498;28;20499;-84
2022/06/02 10:08:33;;;;;;;19.70;8.00;;;25.40;94.80;;;;;;4949532;29;20031;-85
2022/06/02 10:11:30;;;;;;;19.98;8.27;;;25.30;95.00;;;;;;4948934;29;20031;-85
2022/06/02 10:14:32;;;;;;;18.27;8.27;;;25.30;94.20;;;;;;4948457;29;20180;-84
2022/06/02 10:17:03;;;;;;;23.63;8.35;;;25.40;94.80;;;;;;4948560;29;20054;-85
2022/06/02 10:20:07;;;;;;;20.30;8.23;;;25.40;94.90;;;;;;4952322;29;20176;-86
2022/06/02 10:22:36;;;;;;;19.52;7.93;;;25.50;94.90;;;;;;4952108;29;20203;-85
2022/06/02 10:25:52;;;;;;;24.35;8.57;;;25.70;94.20;;;;;;4951717;29;20035;-84
2022/06/02 10:28:49;;;;;;;22.67;9.30;;;25.60;94.50;;;;;;4893987;29;20527;-84
2022/06/02 10:31:20;;;;;;;24.00;8.88;;;25.70;94.40;;;;;;4875752;29;20045;-84
2022/06/02 10:33:57;;;;;;;24.02;10.15;;;25.70;95.20;;;;;;4876149;29;20132;-85
2022/06/02 10:36:53;;;;;;;22.80;9.80;;;25.70;95.60;;;;;;4860277;29;20045;-84
2022/06/02 10:39:31;;;;;;;20.77;9.27;;;25.70;95.20;;;;;;4876456;29;20033;-85
2022/06/02 10:42:15;;;;;;;23.88;9.35;;;25.80;94.70;;;;;;4850208;29;20042;-85
2022/06/02 10:45:06;;;;;;;20.80;9.95;;;25.70;95.70;;;;;;4847784;29;20120;-86
2022/06/02 10:48:05;;;;;;;20.95;9.82;;;25.50;97.70;;;;;;4862483;29;20506;-86
2022/06/02 10:51:00;;;;;;;23.27;10.70;;;25.90;97.30;;;;;;4861178;29;20526;-86
2022/06/02 10:53:37;;;;;;;21.65;9.57;;;25.90;98.60;;;;;;4861179;29;20055;-86
2022/06/02 10:56:22;;;;;;;27.08;10.30;;;25.60;98.20;;;;;;4873184;29;20045;-85
2022/06/02 10:59:08;;;;;;;19.83;10.30;;;25.60;97.60;;;;;;4876023;29;20349;-86
2022/06/02 11:01:45;;;;;;;23.33;10.50;;;25.70;99.90;;;;;;4875834;29;20499;-86
2022/06/02 11:04:28;;;;;;;24.00;10.68;;;25.50;99.90;;;;;;4916390;29;20069;-76
2022/06/02 11:07:29;;;;;;;25.90;10.10;;;25.60;99.90;;;;;;4928966;29;20409;-80
2022/06/02 11:10:01;;;;;;;20.00;9.45;;;25.60;99.90;;;;;;4982701;28;20042;-83
2022/06/02 11:13:13;;;;;;;24.05;10.43;;;25.90;99.90;;;;;;4986151;28;20591;-78
2022/06/02 11:15:57;;;;;;;19.27;8.60;;;25.90;99.90;;;;;;4990672;28;20046;-73
2022/06/02 11:18:43;;;;;;;23.52;8.77;;;25.80;99.90;;;;;;4990859;28;20543;-74
2022/06/02 11:21:43;;;;;;;21.85;9.02;;;25.60;99.90;;;;;;4990536;28;20045;-73
2022/06/02 11:24:46;;;;;;;21.60;9.02;;;25.50;99.90;;;;;;4991009;28;20404;-74
2022/06/02 11:27:20;;;;;;;23.42;8.02;;;25.80;99.90;;;;;;4986021;28;20062;-73
2022/06/02 11:30:05;;;;;;;14.95;7.57;;;25.80;96.40;;;;;;4990845;28;20071;-74
2022/06/02 11:32:35;;;;;;;20.83;7.72;;;25.90;97.10;;;;;;4975791;28;20515;-74
2022/06/02 11:35:07;;;;;;;21.85;7.70;;;26.00;96.10;;;;;;4989669;28;20511;-74
2022/06/02 11:37:38;;;;;;;17.73;7.57;;;26.00;97.10;;;;;;4991950;28;20030;-74
2022/06/02 11:40:30;;;;;;;16.38;8.25;;;26.00;97.30;;;;;;4991977;28;20050;-74
2022/06/02 11:43:24;;;;;;;21.95;9.07;;;25.80;98.20;;;;;;4991979;28;20046;-71
2022/06/02 11:46:02;;;;;;;24.05;8.80;;;26.30;99.40;;;;;;4996824;28;20596;-73
2022/06/02 11:48:36;;;;;;;23.65;7.95;;;26.30;98.80;;;;;;5017617;28;20033;-74
2022/06/02 11:51:20;;;;;;;20.90;8.15;;;26.40;97.80;;;;;;5017819;28;20053;-74
2022/06/02 11:53:49;;;;;;;21.33;8.18;;;26.00;97.20;;;;;;5014992;28;20050;-73
2022/06/02 11:56:35;;;;;;;22.60;8.48;;;26.30;97.90;;;;;;5016096;28;20021;-73
2022/06/02 11:59:31;;;;;;;22.30;7.38;;;26.40;97.00;;;;;;5009199;28;20042;-73
2022/06/02 12:02:35;;;;;;;20.08;7.88;;;26.20;97.00;;;;;;5009034;28;20108;-73
2022/06/02 12:05:36;;;;;;;14.70;7.53;;;26.10;97.20;;;;;;4919021;29;20036;-71
2022/06/02 12:08:25;;;;;;;29.58;9.70;;;26.30;98.00;;;;;;4894603;29;20099;-71
2022/06/02 12:11:12;;;;;;;25.02;8.77;;;26.20;98.60;;;;;;4897374;29;20060;-71
2022/06/02 12:13:46;;;;;;;21.13;7.72;;;26.20;99.10;;;;;;4897223;29;20056;-71
2022/06/02 12:16:46;;;;;;;22.33;8.32;;;26.10;98.20;;;;;;4896739;29;20120;-71
2022/06/02 12:19:38;;;;;;;25.67;8.00;;;26.40;98.90;;;;;;4896440;29;20052;-72
2022/06/02 12:22:27;;;;;;;22.20;8.02;;;26.30;98.40;;;;;;4896374;29;20048;-71
2022/06/02 12:25:13;;;;;;;21.65;7.57;;;26.30;98.70;;;;;;4896247;29;20080;-71
2022/06/02 12:28:05;;;;;;;22.85;8.15;;;26.30;99.00;;;;;;4895997;29;20081;-71
2022/06/02 12:30:44;;;;;;;21.13;8.48;;;26.10;99.20;;;;;;4895750;29;20574;-71
2022/06/02 12:33:36;;;;;;;25.08;8.88;;;26.20;99.90;;;;;;4896063;29;20055;-71
2022/06/02 12:36:26;;;;;;;24.13;8.63;;;26.40;99.90;;;;;;4896595;29;20040;-71
2022/06/02 12:39:29;;;;;;;26.75;8.05;;;26.50;99.20;;;;;;4918380;28;20047;-71
2022/06/02 12:42:24;;;;;;;24.88;8.50;;;26.20;99.90;;;;;;4939061;28;20035;-71
2022/06/02 12:45:32;;;;;;;22.55;7.90;;;26.50;99.50;;;;;;5003291;28;20038;-72
2022/06/02 12:48:26;;;;;;;21.08;7.53;;;26.50;99.00;;;;;;4997692;28;20027;-73
2022/06/02 12:51:04;;;;;;;18.95;6.88;;;26.60;97.90;;;;;;4950437;28;20159;-72
2022/06/02 12:54:06;;;;;;;21.10;7.35;;;26.60;97.90;;;;;;4946538;28;20042;-72
2022/06/02 12:57:10;;;;;;;17.33;7.43;;;26.30;98.30;;;;;;4934480;28;20039;-72
2022/06/02 12:59:54;;;;;;;19.40;6.88;;;26.40;98.30;;;;;;4934932;28;20035;-72
2022/06/02 13:02:52;;;;;;;21.05;6.30;;;26.50;97.50;;;;;;4933296;28;20488;-72
2022/06/02 13:05:44;;;;;;;17.35;7.60;;;26.70;97.00;;;;;;4948584;28;20043;-73
2022/06/02 13:08:24;;;;;;;21.33;6.47;;;26.70;97.70;;;;;;4949429;28;20074;-72
2022/06/02 13:11:02;;;;;;;16.02;6.38;;;27.10;97.30;;;;;;4959130;28;20165;-72
2022/06/02 13:13:44;;;;;;;18.27;6.53;;;27.10;95.00;;;;;;4951138;28;20047;-73
2022/06/02 13:16:34;;;;;;;17.73;6.80;;;26.80;95.20;;;;;;4944949;28;20078;-73
2022/06/02 13:19:14;;;;;;;21.20;6.00;;;27.10;94.50;;;;;;4945245;28;20043;-73
2022/06/02 13:22:17;;;;;;;15.93;4.93;;;27.00;93.50;;;;;;4944871;28;20032;-72
2022/06/02 13:25:11;;;;;;;12.27;5.18;;;26.80;92.40;;;;;;4928728;29;20036;-71
2022/06/02 13:28:08;;;;;;;18.85;5.57;;;26.80;92.20;;;;;;4974759;28;20053;-73
2022/06/02 13:30:53;;;;;;;17.73;5.47;;;27.00;93.20;;;;;;5010233;28;20277;-73
2022/06/02 13:33:46;;;;;;;22.35;6.00;;;27.20;91.10;;;;;;5010021;28;20506;-73
2022/06/02 13:36:36;;;;;;;14.50;5.32;;;27.00;93.30;;;;;;5014363;28;20390;-72
2022/06/02 13:39:11;;;;;;;14.15;5.57;;;26.90;92.40;;;;;;5013898;28;20026;-73
2022/06/02 13:41:45;;;;;;;16.27;5.28;;;26.80;93.70;;;;;;5014250;28;20029;-73
2022/06/02 13:44:36;;;;;;;16.05;5.43;;;26.90;91.80;;;;;;5013280;28;20116;-73
2022/06/02 13:47:39;;;;;;;17.05;5.25;;;27.20;92.00;;;;;;5010451;28;20025;-72
2022/06/02 13:50:48;;;;;;;19.25;5.70;;;27.20;91.10;;;;;;5010755;28;20073;-73
2022/06/02 13:53:16;;;;;;;15.52;5.13;;;26.60;92.80;;;;;;5011544;28;20514;-73
2022/06/02 13:59:29;;;;;;;11.13;4.80;;;26.80;92.20;;;;;;5010015;28;20092;-72
2022/06/02 14:05:23;;;;;;;16.77;4.82;;;26.50;90.80;;;;;;5018396;23;20075;-72
2022/06/02 14:08:14;;;;;;;19.95;5.88;;;26.60;89.30;;;;;;5011015;28;20109;-72
2022/06/02 14:11:21;;;;;;;18.17;5.88;;;26.50;90.50;;;;;;5011713;28;20396;-71
2022/06/02 14:14:18;;;;;;;13.70;4.63;;;26.70;91.70;;;;;;5012071;28;20500;-71
2022/06/02 14:17:12;;;;;;;16.42;5.22;;;27.20;89.10;;;;;;5011142;28;20029;-73
2022/06/02 14:20:02;;;;;;;15.20;4.90;;;26.80;91.90;;;;;;5010127;28;20053;-73
2022/06/02 14:22:49;;;;;;;14.13;4.90;;;27.10;90.90;;;;;;5022931;28;20287;-73
2022/06/02 14:25:25;;;;;;;14.80;5.50;;;27.30;91.00;;;;;;5007170;28;20041;-73
2022/06/02 14:28:31;;;;;;;15.80;5.95;;;26.90;91.90;;;;;;5002793;28;20044;-71